Time;durP1;ratioP1;P1;durP2;ratioP2;P2;SDS_P1;SDS_P2;PMS_P1;PMS_P2;Temp;Humidity;BMP_temperature;BMP_pressure;BME280_temperature;BME280_humidity;BME280_pressure;Samples;Min_cycle;Max_cycle;Signal;HPM_P1;HPM_P2
2023/04/23 00:01:25;;;;;;;55.15;36.28;;;10.90;91.20;;;;;;5050049;28;20442;-68
2023/04/23 00:03:54;;;;;;;49.83;33.50;;;10.80;91.20;;;;;;5050616;28;20056;-68
2023/04/23 00:06:22;;;;;;;44.05;29.25;;;10.80;91.20;;;;;;5050199;28;20027;-67
2023/04/23 00:08:49;;;;;;;48.13;32.50;;;10.90;91.20;;;;;;5049113;28;20407;-69
2023/04/23 00:11:15;;;;;;;49.92;33.55;;;10.90;91.10;;;;;;5048950;28;20123;-68
2023/04/23 00:13:41;;;;;;;48.45;31.90;;;10.80;91.10;;;;;;5050644;28;20063;-68
2023/04/23 00:16:09;;;;;;;48.38;32.10;;;10.90;91.10;;;;;;5050069;28;20051;-69
2023/04/23 00:18:35;;;;;;;63.78;40.40;;;10.80;91.00;;;;;;5050238;28;20033;-70
2023/04/23 00:21:00;;;;;;;48.90;31.75;;;10.80;91.10;;;;;;5048939;28;20508;-69
2023/04/23 00:23:27;;;;;;;48.55;32.25;;;10.80;91.10;;;;;;5050089;28;20383;-70
2023/04/23 00:25:53;;;;;;;51.22;33.05;;;10.80;91.10;;;;;;5050218;28;20040;-69
2023/04/23 00:28:18;;;;;;;48.70;32.15;;;10.80;91.00;;;;;;5049779;28;20025;-69
2023/04/23 00:30:44;;;;;;;45.22;29.75;;;10.90;91.00;;;;;;5049965;28;20025;-69
2023/04/23 00:33:09;;;;;;;46.38;30.83;;;10.90;91.00;;;;;;5049939;28;20360;-68
2023/04/23 00:35:35;;;;;;;46.90;30.40;;;10.80;90.90;;;;;;5050125;28;20021;-69
2023/04/23 00:38:00;;;;;;;41.33;28.17;;;10.80;90.90;;;;;;5049794;28;20498;-68
2023/04/23 00:40:26;;;;;;;50.13;33.28;;;10.80;90.90;;;;;;5050555;28;20025;-69
2023/04/23 00:42:52;;;;;;;48.25;32.72;;;10.90;90.90;;;;;;5049818;28;20028;-69
2023/04/23 00:45:18;;;;;;;51.50;35.10;;;10.90;90.80;;;;;;5049847;28;20104;-68
2023/04/23 00:47:45;;;;;;;53.25;35.20;;;10.80;90.80;;;;;;5049639;28;20483;-68
2023/04/23 00:50:12;;;;;;;48.58;30.88;;;10.80;90.90;;;;;;5049874;28;20025;-68
2023/04/23 00:52:39;;;;;;;44.97;29.88;;;10.80;90.90;;;;;;5049836;28;20024;-69
2023/04/23 00:55:05;;;;;;;44.45;29.13;;;10.80;90.90;;;;;;5049656;28;20048;-68
2023/04/23 00:57:32;;;;;;;51.13;33.05;;;10.80;90.90;;;;;;5049552;28;20033;-69
2023/04/23 00:59:58;;;;;;;50.67;33.70;;;10.80;90.80;;;;;;5049611;28;20021;-68
2023/04/23 01:02:26;;;;;;;52.05;34.30;;;10.80;90.80;;;;;;5049743;28;20100;-68
2023/04/23 01:04:53;;;;;;;48.63;31.52;;;10.80;90.80;;;;;;5049581;28;20104;-69
2023/04/23 01:07:20;;;;;;;44.40;27.60;;;10.80;90.90;;;;;;5049623;28;20021;-68
2023/04/23 01:09:46;;;;;;;42.75;28.63;;;10.80;90.90;;;;;;5049568;28;20491;-69
2023/04/23 01:12:14;;;;;;;43.60;27.98;;;10.80;90.80;;;;;;5052659;28;20407;-69
2023/04/23 01:14:41;;;;;;;40.38;27.48;;;10.80;90.70;;;;;;5053394;28;20034;-69
2023/04/23 01:17:07;;;;;;;48.38;30.85;;;10.80;90.70;;;;;;5053352;28;20368;-69
2023/04/23 01:19:34;;;;;;;39.95;26.75;;;10.80;90.70;;;;;;5053444;28;20017;-68
2023/04/23 01:22:00;;;;;;;34.33;24.27;;;10.80;90.60;;;;;;5053743;28;20100;-70
2023/04/23 01:24:28;;;;;;;44.45;29.20;;;10.80;90.70;;;;;;5051915;28;20017;-69
2023/04/23 01:26:54;;;;;;;38.58;25.45;;;10.80;90.60;;;;;;5053234;28;20033;-68
2023/04/23 01:29:20;;;;;;;44.25;27.92;;;10.80;90.60;;;;;;5053174;28;20515;-69
2023/04/23 01:31:47;;;;;;;44.22;28.52;;;10.80;90.50;;;;;;5053285;28;20032;-70
2023/04/23 01:34:13;;;;;;;42.28;28.17;;;10.90;90.40;;;;;;5053262;28;20021;-70
2023/04/23 01:36:40;;;;;;;46.72;29.55;;;10.90;90.40;;;;;;5053311;28;20087;-70
2023/04/23 01:39:06;;;;;;;43.20;27.23;;;10.90;90.40;;;;;;5053082;28;20048;-70
2023/04/23 01:41:32;;;;;;;44.70;29.10;;;10.90;90.40;;;;;;5051808;28;20475;-67
2023/04/23 01:43:59;;;;;;;41.90;26.67;;;10.90;90.40;;;;;;5053028;28;20013;-68
2023/04/23 01:46:25;;;;;;;43.38;27.90;;;10.90;90.40;;;;;;5053126;28;20025;-70
2023/04/23 01:48:50;;;;;;;44.33;28.10;;;10.90;90.40;;;;;;5053142;28;20403;-68
2023/04/23 01:51:16;;;;;;;43.05;27.40;;;11.00;90.40;;;;;;5052902;28;20052;-69
2023/04/23 01:53:41;;;;;;;40.35;25.90;;;11.00;90.30;;;;;;5052970;28;20044;-69
2023/04/23 01:56:09;;;;;;;38.75;24.58;;;11.00;90.30;;;;;;5053009;28;20545;-69
2023/04/23 01:58:35;;;;;;;42.88;28.27;;;11.00;90.20;;;;;;5053032;28;20017;-69
2023/04/23 02:01:00;;;;;;;42.20;26.85;;;11.00;90.20;;;;;;5052944;28;20032;-69
2023/04/23 02:03:29;;;;;;;40.67;25.77;;;11.00;90.30;;;;;;5053053;28;20028;-70
2023/04/23 02:05:55;;;;;;;44.20;29.02;;;10.90;90.30;;;;;;5052692;28;20021;-67
2023/04/23 02:08:21;;;;;;;47.92;29.63;;;10.90;90.30;;;;;;5051097;28;20112;-69
2023/04/23 02:10:46;;;;;;;42.55;27.13;;;10.80;90.30;;;;;;5052152;28;20507;-70
2023/04/23 02:13:12;;;;;;;36.75;24.80;;;10.80;90.40;;;;;;5051245;28;20028;-69
2023/04/23 02:15:39;;;;;;;40.80;27.48;;;10.80;90.40;;;;;;5052559;28;20045;-69
2023/04/23 02:18:05;;;;;;;42.53;29.33;;;10.70;90.40;;;;;;5052381;28;20042;-68
2023/04/23 02:20:31;;;;;;;46.50;30.73;;;10.70;90.40;;;;;;5053461;28;20021;-67
2023/04/23 02:22:56;;;;;;;46.42;30.30;;;10.60;90.60;;;;;;5054820;28;20104;-69
2023/04/23 02:25:22;;;;;;;44.00;28.63;;;10.60;90.70;;;;;;5052292;28;20029;-69
2023/04/23 02:27:48;;;;;;;43.28;28.27;;;10.60;90.70;;;;;;5050684;28;20025;-70
2023/04/23 02:30:14;;;;;;;46.08;30.65;;;10.60;90.70;;;;;;5052254;28;20033;-68
2023/04/23 02:32:40;;;;;;;47.50;31.63;;;10.60;90.70;;;;;;5052194;28;20029;-68
2023/04/23 02:35:08;;;;;;;45.28;29.90;;;10.50;90.80;;;;;;5052031;28;20025;-69
2023/04/23 02:37:34;;;;;;;44.38;29.33;;;10.50;90.80;;;;;;5051896;28;20032;-69
2023/04/23 02:40:00;;;;;;;47.88;31.98;;;10.60;91.10;;;;;;5051823;28;20021;-68
2023/04/23 02:42:25;;;;;;;43.90;28.95;;;10.50;90.90;;;;;;5051831;28;20029;-68
2023/04/23 02:44:51;;;;;;;49.75;33.00;;;10.50;91.00;;;;;;5050495;28;20025;-69
2023/04/23 02:47:17;;;;;;;49.28;31.52;;;10.40;91.00;;;;;;5051912;28;20033;-70
2023/04/23 02:49:42;;;;;;;43.35;28.77;;;10.40;91.10;;;;;;5051958;28;20056;-69
2023/04/23 02:52:08;;;;;;;40.28;26.92;;;10.40;91.10;;;;;;5051723;28;20505;-68
2023/04/23 02:54:35;;;;;;;43.72;29.60;;;10.40;91.10;;;;;;5050268;28;20036;-69
2023/04/23 02:57:02;;;;;;;40.58;26.58;;;10.40;91.20;;;;;;5051353;28;20021;-69
2023/04/23 02:59:27;;;;;;;43.05;28.50;;;10.40;91.20;;;;;;5051421;28;20036;-69
2023/04/23 03:01:53;;;;;;;42.13;28.70;;;10.40;91.20;;;;;;5051520;28;20017;-69
2023/04/23 03:04:19;;;;;;;48.83;32.28;;;10.40;91.20;;;;;;5051408;28;20368;-69
2023/04/23 03:06:44;;;;;;;45.22;30.38;;;10.40;91.20;;;;;;5051458;28;20029;-69
2023/04/23 03:09:11;;;;;;;37.78;26.15;;;10.40;91.30;;;;;;5051428;28;20106;-68
2023/04/23 03:11:37;;;;;;;41.30;27.33;;;10.40;91.30;;;;;;5051133;28;20051;-69
2023/04/23 03:14:02;;;;;;;35.40;24.33;;;10.40;91.30;;;;;;5051306;28;20415;-69
2023/04/23 03:16:30;;;;;;;41.92;28.73;;;10.50;91.30;;;;;;5049117;28;20052;-69
2023/04/23 03:18:56;;;;;;;36.63;25.45;;;10.40;91.30;;;;;;5049684;28;20021;-69
2023/04/23 03:21:21;;;;;;;41.00;27.58;;;10.40;91.30;;;;;;5050909;28;20438;-71
2023/04/23 03:23:47;;;;;;;35.55;24.85;;;10.40;91.40;;;;;;5049566;28;20024;-69
2023/04/23 03:26:13;;;;;;;39.72;26.42;;;10.40;91.40;;;;;;5050816;28;20075;-68
2023/04/23 03:28:38;;;;;;;40.40;27.30;;;10.40;91.50;;;;;;5049799;28;20060;-70
2023/04/23 03:31:04;;;;;;;37.70;25.38;;;10.40;91.50;;;;;;5050984;28;20028;-70
2023/04/23 03:33:29;;;;;;;43.90;28.55;;;10.40;91.50;;;;;;5050685;28;20032;-70
2023/04/23 03:35:55;;;;;;;36.28;24.85;;;10.40;91.50;;;;;;5050667;28;20029;-68
2023/04/23 03:38:20;;;;;;;34.17;23.90;;;10.40;91.60;;;;;;5050813;28;20017;-69
2023/04/23 03:40:46;;;;;;;35.88;24.17;;;10.40;91.60;;;;;;5049492;28;20108;-70
2023/04/23 03:43:12;;;;;;;35.60;24.25;;;10.40;91.80;;;;;;5050657;28;20021;-69
2023/04/23 03:45:37;;;;;;;38.00;25.77;;;10.40;91.50;;;;;;5050796;28;20086;-68
2023/04/23 03:48:03;;;;;;;41.33;27.67;;;10.30;91.60;;;;;;5050507;28;20025;-68
2023/04/23 03:50:28;;;;;;;40.13;27.25;;;10.30;91.60;;;;;;5050622;28;20036;-68
2023/04/23 03:52:54;;;;;;;33.00;23.25;;;10.30;91.60;;;;;;5050850;28;20416;-68
2023/04/23 03:55:20;;;;;;;39.03;27.15;;;10.30;91.60;;;;;;5050537;28;20095;-67
2023/04/23 03:57:45;;;;;;;40.03;27.42;;;10.30;91.60;;;;;;5050470;28;20021;-67
2023/04/23 04:00:11;;;;;;;35.28;23.48;;;10.30;91.70;;;;;;5050498;28;20031;-68
2023/04/23 04:02:38;;;;;;;38.95;26.35;;;10.30;91.70;;;;;;5049101;28;20036;-68
2023/04/23 04:05:04;;;;;;;35.50;23.90;;;10.30;91.70;;;;;;5050543;28;20384;-69
2023/04/23 04:07:30;;;;;;;35.15;23.88;;;10.30;91.60;;;;;;5048910;28;20435;-69
2023/04/23 04:09:56;;;;;;;37.72;26.73;;;10.40;91.60;;;;;;5049232;28;20079;-68
2023/04/23 04:12:21;;;;;;;36.65;25.10;;;10.30;91.60;;;;;;5050538;28;20021;-69
2023/04/23 04:14:47;;;;;;;35.10;22.85;;;10.40;91.60;;;;;;5050517;28;20051;-69
2023/04/23 04:17:14;;;;;;;34.40;22.40;;;10.40;91.60;;;;;;5050661;28;20021;-69
2023/04/23 04:19:41;;;;;;;31.70;21.50;;;10.40;91.60;;;;;;5050767;28;20020;-70
2023/04/23 04:22:06;;;;;;;33.55;22.63;;;10.40;91.60;;;;;;5050546;28;20387;-69
2023/04/23 04:24:32;;;;;;;32.95;22.67;;;10.40;91.50;;;;;;5050038;28;20017;-69
2023/04/23 04:27:01;;;;;;;37.17;25.33;;;10.40;91.40;;;;;;5048993;28;20040;-69
2023/04/23 04:29:27;;;;;;;34.97;24.17;;;10.50;91.40;;;;;;5050826;28;20368;-69
2023/04/23 04:31:56;;;;;;;34.47;23.90;;;10.50;91.40;;;;;;5050256;28;20025;-69
2023/04/23 04:34:22;;;;;;;32.05;21.35;;;10.50;91.30;;;;;;5049826;28;20147;-69
2023/04/23 04:36:48;;;;;;;36.00;23.10;;;10.60;91.30;;;;;;5049946;28;20022;-69
2023/04/23 04:39:13;;;;;;;33.20;22.95;;;10.50;91.20;;;;;;5049883;28;20096;-69
2023/04/23 04:41:40;;;;;;;37.97;25.73;;;10.60;91.20;;;;;;5050128;28;20017;-68
2023/04/23 04:44:09;;;;;;;38.67;26.30;;;10.50;91.20;;;;;;5049862;28;20013;-69
2023/04/23 04:46:39;;;;;;;38.70;25.50;;;10.50;91.30;;;;;;5053922;28;20052;-69
2023/04/23 04:49:09;;;;;;;38.35;24.98;;;10.50;91.30;;;;;;5054088;28;20052;-69
2023/04/23 04:51:36;;;;;;;32.58;22.45;;;10.50;91.30;;;;;;5053924;28;20476;-69
2023/04/23 04:54:02;;;;;;;29.83;20.58;;;10.60;91.30;;;;;;5054199;28;20450;-70
2023/04/23 04:56:28;;;;;;;31.48;21.35;;;10.60;91.30;;;;;;5053671;28;20021;-68
2023/04/23 04:58:54;;;;;;;30.33;20.67;;;10.70;91.20;;;;;;5054083;28;20025;-69
2023/04/23 05:01:22;;;;;;;32.55;21.05;;;10.80;91.10;;;;;;5053620;28;20013;-69
2023/04/23 05:03:47;;;;;;;30.27;21.15;;;10.80;91.00;;;;;;5053865;28;20075;-70
2023/04/23 05:06:13;;;;;;;30.95;21.30;;;10.90;91.00;;;;;;5053620;28;20025;-69
2023/04/23 05:08:38;;;;;;;31.08;20.75;;;10.90;90.90;;;;;;5053559;28;20052;-70
2023/04/23 05:11:04;;;;;;;31.25;20.85;;;11.00;90.90;;;;;;5052317;28;20108;-68
2023/04/23 05:13:30;;;;;;;27.55;20.08;;;10.90;90.90;;;;;;5053667;28;20025;-69
2023/04/23 05:15:55;;;;;;;28.73;19.85;;;11.00;90.90;;;;;;5053361;28;20032;-69
2023/04/23 05:18:21;;;;;;;31.15;21.17;;;11.00;90.90;;;;;;5053664;28;20021;-69
2023/04/23 05:20:46;;;;;;;29.88;20.75;;;11.00;90.80;;;;;;5053731;28;20036;-68
2023/04/23 05:23:12;;;;;;;29.42;20.13;;;11.00;91.00;;;;;;5053499;28;20158;-69
2023/04/23 05:25:38;;;;;;;28.25;20.05;;;11.00;90.90;;;;;;5053187;28;20396;-68
2023/04/23 05:28:04;;;;;;;28.95;20.30;;;11.00;90.80;;;;;;5053171;28;20036;-69
2023/04/23 05:30:29;;;;;;;33.28;22.45;;;11.10;90.80;;;;;;5053247;28;20025;-69
2023/04/23 05:32:55;;;;;;;29.48;20.80;;;11.00;90.90;;;;;;5053195;28;20366;-69
2023/04/23 05:35:21;;;;;;;28.10;19.30;;;11.00;90.90;;;;;;5053552;28;20363;-68
2023/04/23 05:37:46;;;;;;;25.42;17.92;;;11.00;91.00;;;;;;5052852;28;20503;-68
2023/04/23 05:40:12;;;;;;;24.85;17.90;;;11.10;91.10;;;;;;5051676;28;20104;-69
2023/04/23 05:42:37;;;;;;;26.67;18.90;;;11.10;91.00;;;;;;5052982;28;20142;-69
2023/04/23 05:45:04;;;;;;;26.20;18.33;;;11.10;91.00;;;;;;5052699;28;20437;-68
2023/04/23 05:47:29;;;;;;;25.52;18.25;;;11.10;90.90;;;;;;5052807;28;20552;-69
2023/04/23 05:49:58;;;;;;;23.42;17.02;;;11.20;90.90;;;;;;5053137;28;20028;-68
2023/04/23 05:52:24;;;;;;;23.23;17.13;;;11.20;90.90;;;;;;5052705;28;20487;-69
2023/04/23 05:54:50;;;;;;;25.02;18.60;;;11.30;90.90;;;;;;5052859;28;20025;-69
2023/04/23 05:57:16;;;;;;;26.40;19.45;;;11.40;90.90;;;;;;5051939;28;20021;-69
2023/04/23 05:59:42;;;;;;;28.10;20.92;;;11.80;90.70;;;;;;5052575;28;20472;-69
2023/04/23 06:02:09;;;;;;;29.13;20.98;;;11.80;90.30;;;;;;5051502;28;20118;-68
2023/04/23 06:04:35;;;;;;;27.67;20.83;;;11.80;90.30;;;;;;5052792;28;20024;-69
2023/04/23 06:07:01;;;;;;;25.30;18.92;;;12.30;90.60;;;;;;5052540;28;20056;-69
2023/04/23 06:09:27;;;;;;;25.38;18.55;;;13.10;88.50;;;;;;5052565;28;20060;-69
2023/04/23 06:11:53;;;;;;;25.27;18.52;;;13.60;87.00;;;;;;5052626;28;20025;-69
2023/04/23 06:14:18;;;;;;;24.83;19.42;;;14.50;84.30;;;;;;5052342;28;20032;-68
2023/04/23 06:16:44;;;;;;;25.33;19.23;;;15.70;81.50;;;;;;5052365;28;20025;-68
2023/04/23 06:19:10;;;;;;;21.10;17.30;;;16.60;78.20;;;;;;5052366;28;20056;-68
2023/04/23 06:21:36;;;;;;;20.48;15.95;;;17.40;74.40;;;;;;5052375;28;20025;-68
2023/04/23 06:24:01;;;;;;;19.80;15.60;;;17.60;72.50;;;;;;5052322;28;20021;-68
2023/04/23 06:26:27;;;;;;;18.83;15.52;;;18.40;71.00;;;;;;5052247;28;20033;-68
2023/04/23 06:28:52;;;;;;;21.05;16.40;;;19.10;68.70;;;;;;5051261;28;20021;-67
2023/04/23 06:31:18;;;;;;;19.77;16.08;;;19.90;66.40;;;;;;5052222;28;20037;-68
2023/04/23 06:33:44;;;;;;;17.27;14.63;;;20.20;64.50;;;;;;5052326;28;20091;-68
2023/04/23 06:36:09;;;;;;;15.98;12.80;;;20.50;62.80;;;;;;5052081;28;20036;-68
2023/04/23 06:38:35;;;;;;;14.13;12.02;;;20.90;62.00;;;;;;5052546;28;20025;-68
2023/04/23 06:41:03;;;;;;;16.10;13.18;;;21.30;61.00;;;;;;5052716;28;20108;-68
2023/04/23 06:43:28;;;;;;;16.25;13.13;;;21.80;59.50;;;;;;5052384;28;20582;-68
2023/04/23 06:45:55;;;;;;;15.35;13.05;;;22.00;58.70;;;;;;5051981;28;20049;-68
2023/04/23 06:48:21;;;;;;;15.20;12.35;;;22.00;57.80;;;;;;5052123;28;20021;-68
2023/04/23 06:50:47;;;;;;;14.30;12.15;;;22.10;57.30;;;;;;5051767;28;20032;-69
2023/04/23 06:53:13;;;;;;;14.15;12.27;;;22.50;57.40;;;;;;5051967;28;20021;-68
2023/04/23 06:55:38;;;;;;;13.20;11.20;;;23.00;56.30;;;;;;5051704;28;20488;-68
2023/04/23 06:58:06;;;;;;;12.23;10.80;;;23.10;55.80;;;;;;5051994;28;20032;-67
2023/04/23 07:00:32;;;;;;;11.93;10.57;;;23.30;55.10;;;;;;5051855;28;20110;-67
2023/04/23 07:02:57;;;;;;;13.15;11.30;;;23.20;54.70;;;;;;5051515;28;20021;-69
2023/04/23 07:05:23;;;;;;;11.13;9.63;;;23.10;54.40;;;;;;5050310;28;20167;-69
2023/04/23 07:07:49;;;;;;;10.20;8.52;;;23.10;54.50;;;;;;5051232;28;20493;-68
2023/04/23 07:10:14;;;;;;;10.57;9.55;;;23.60;54.40;;;;;;5050869;28;20028;-68
2023/04/23 07:12:40;;;;;;;10.57;8.65;;;23.60;53.80;;;;;;5051137;28;20029;-68
2023/04/23 07:15:07;;;;;;;10.65;9.32;;;23.60;53.80;;;;;;5049722;28;20029;-69
2023/04/23 07:17:33;;;;;;;14.07;10.85;;;23.80;53.30;;;;;;5050836;28;20041;-69
2023/04/23 07:19:58;;;;;;;10.80;9.70;;;23.70;52.80;;;;;;5050906;28;20565;-67
2023/04/23 07:22:25;;;;;;;10.55;9.43;;;23.60;52.70;;;;;;5051451;28;20017;-68
2023/04/23 07:24:53;;;;;;;9.27;8.27;;;23.90;52.40;;;;;;5051127;28;20479;-69
2023/04/23 07:27:19;;;;;;;9.95;8.95;;;24.20;52.20;;;;;;5050875;28;20033;-69
2023/04/23 07:29:44;;;;;;;10.32;9.15;;;24.30;51.50;;;;;;5051096;28;20040;-70
2023/04/23 07:32:10;;;;;;;11.50;9.70;;;24.50;51.30;;;;;;5050850;28;20025;-69
2023/04/23 07:34:36;;;;;;;10.02;8.98;;;24.50;51.10;;;;;;5050391;28;20021;-68
2023/04/23 07:37:02;;;;;;;9.73;7.85;;;24.50;50.90;;;;;;5049736;28;20021;-68
2023/04/23 07:39:28;;;;;;;9.00;8.10;;;24.80;51.10;;;;;;5049333;28;20021;-68
2023/04/23 07:41:54;;;;;;;9.30;8.02;;;25.00;50.60;;;;;;5050615;28;20071;-67
2023/04/23 07:44:19;;;;;;;8.45;7.28;;;25.10;50.20;;;;;;5051107;28;20049;-68
2023/04/23 07:46:45;;;;;;;8.43;7.05;;;25.20;50.30;;;;;;5050912;28;20087;-68
2023/04/23 07:49:10;;;;;;;8.60;7.72;;;25.50;50.30;;;;;;5050754;28;20029;-68
2023/04/23 07:51:36;;;;;;;8.55;7.65;;;25.40;49.80;;;;;;5050553;28;20029;-69
2023/04/23 07:54:02;;;;;;;8.68;7.20;;;25.30;50.20;;;;;;5050510;28;20029;-68
2023/04/23 07:56:31;;;;;;;9.60;7.35;;;25.20;50.00;;;;;;5050297;28;20032;-68
2023/04/23 07:58:57;;;;;;;8.85;7.40;;;24.70;50.40;;;;;;5050464;28;20383;-69
2023/04/23 08:01:23;;;;;;;8.52;7.47;;;24.70;50.80;;;;;;5050428;28;20037;-70
2023/04/23 08:03:48;;;;;;;7.32;6.50;;;24.70;50.20;;;;;;5050304;28;20025;-69
2023/04/23 08:06:14;;;;;;;7.75;6.75;;;24.80;51.00;;;;;;5050407;28;20029;-69
2023/04/23 08:08:40;;;;;;;10.85;8.45;;;24.80;50.90;;;;;;5050329;28;20383;-68
2023/04/23 08:11:06;;;;;;;9.32;8.02;;;24.70;50.30;;;;;;5050137;28;20083;-69
2023/04/23 08:13:32;;;;;;;8.07;6.82;;;23.90;50.70;;;;;;5050350;28;20091;-69
2023/04/23 08:15:57;;;;;;;9.30;7.10;;;23.70;52.40;;;;;;5050272;28;20442;-69
2023/04/23 08:18:23;;;;;;;8.48;7.15;;;23.20;52.90;;;;;;5050138;28;20021;-69
2023/04/23 08:20:48;;;;;;;7.22;6.38;;;22.50;54.10;;;;;;5049728;28;20483;-68
2023/04/23 08:23:14;;;;;;;9.32;6.78;;;22.20;55.90;;;;;;5050245;28;20108;-68
2023/04/23 08:25:40;;;;;;;7.05;5.90;;;21.60;56.60;;;;;;5049903;28;20017;-68
2023/04/23 08:28:05;;;;;;;8.13;6.93;;;20.60;58.10;;;;;;5050171;28;20071;-69
2023/04/23 08:30:31;;;;;;;7.55;5.93;;;20.00;59.00;;;;;;5050154;28;20025;-69
2023/04/23 08:32:57;;;;;;;8.25;5.43;;;19.60;60.40;;;;;;5050352;28;20028;-68
2023/04/23 08:35:22;;;;;;;8.45;5.45;;;19.30;61.80;;;;;;5049989;28;20458;-68
2023/04/23 08:37:48;;;;;;;7.80;5.40;;;19.10;62.50;;;;;;5050403;28;20076;-68
2023/04/23 08:40:14;;;;;;;7.80;5.47;;;18.80;62.90;;;;;;5049998;28;20021;-69
2023/04/23 08:43:00;;;;;;;10.48;6.85;;;18.70;63.60;;;;;;5049925;28;20017;-69
2023/04/23 08:45:26;;;;;;;7.65;5.88;;;18.30;63.10;;;;;;5050110;28;20063;-70
2023/04/23 08:47:57;;;;;;;7.30;5.18;;;18.00;64.00;;;;;;5049746;28;20029;-70
2023/04/23 08:50:23;;;;;;;8.40;5.57;;;18.10;65.00;;;;;;5049983;28;20029;-70
2023/04/23 08:52:53;;;;;;;7.55;5.13;;;18.00;65.00;;;;;;5049802;28;20420;-70
2023/04/23 08:55:21;;;;;;;8.13;6.57;;;18.00;65.50;;;;;;5050044;28;20535;-69
2023/04/23 08:57:47;;;;;;;7.15;5.32;;;17.90;65.30;;;;;;5049700;28;20025;-68
2023/04/23 09:00:15;;;;;;;8.95;5.50;;;17.90;65.80;;;;;;5050095;28;20071;-67
2023/04/23 09:02:46;;;;;;;9.10;7.00;;;18.00;66.40;;;;;;5049917;28;20441;-67
2023/04/23 09:05:12;;;;;;;8.32;5.18;;;18.10;65.80;;;;;;5050167;28;20028;-68
2023/04/23 09:07:38;;;;;;;6.97;5.32;;;18.10;66.30;;;;;;5050318;28;20066;-68
2023/04/23 09:10:10;;;;;;;9.25;6.05;;;18.10;66.20;;;;;;5049776;28;20475;-68
2023/04/23 09:12:36;;;;;;;9.80;5.45;;;18.20;65.70;;;;;;5049709;28;20094;-67
2023/04/23 09:15:09;;;;;;;5.90;4.55;;;18.10;65.60;;;;;;5049775;28;20062;-67
2023/04/23 09:17:36;;;;;;;6.72;4.20;;;18.30;66.40;;;;;;5049142;28;20029;-68
2023/04/23 09:20:02;;;;;;;5.65;4.00;;;18.50;65.80;;;;;;5049565;28;20494;-68
2023/04/23 09:23:05;;;;;;;5.38;3.60;;;18.60;65.50;;;;;;5049631;28;20029;-67
2023/04/23 09:25:31;;;;;;;6.40;4.63;;;18.80;65.30;;;;;;5027574;28;20045;-67
2023/04/23 09:28:00;;;;;;;7.38;4.75;;;18.80;64.70;;;;;;5049806;28;20048;-69
2023/04/23 09:30:26;;;;;;;8.32;4.10;;;18.60;63.50;;;;;;5049601;28;20022;-68
2023/04/23 09:32:52;;;;;;;5.18;3.92;;;18.50;63.60;;;;;;5051840;28;20021;-68
2023/04/23 09:35:18;;;;;;;9.80;4.57;;;18.50;63.30;;;;;;5051853;28;20037;-68
2023/04/23 09:37:49;;;;;;;7.75;3.95;;;18.30;63.00;;;;;;5052948;28;20032;-67
2023/04/23 09:40:23;;;;;;;8.23;3.93;;;18.20;63.30;;;;;;5052991;28;20021;-68
2023/04/23 09:42:53;;;;;;;8.02;3.60;;;18.30;63.10;;;;;;5053381;28;20425;-67
2023/04/23 09:45:19;;;;;;;7.88;3.40;;;18.20;62.20;;;;;;5052909;28;20025;-69
2023/04/23 09:47:55;;;;;;;6.30;3.25;;;18.30;62.30;;;;;;5051531;28;20021;-68
2023/04/23 09:50:35;;;;;;;7.82;3.65;;;18.40;62.20;;;;;;5052781;28;20118;-69
2023/04/23 09:53:01;;;;;;;6.75;3.38;;;18.50;61.70;;;;;;5052798;28;20479;-68
2023/04/23 09:55:37;;;;;;;4.45;2.60;;;18.40;61.30;;;;;;5051444;28;20035;-69
2023/04/23 09:58:04;;;;;;;6.07;2.80;;;18.50;61.50;;;;;;5052784;28;20516;-68
2023/04/23 10:00:35;;;;;;;7.15;3.00;;;18.60;61.40;;;;;;5052614;28;20086;-68
2023/04/23 10:03:01;;;;;;;4.35;2.55;;;18.70;61.10;;;;;;5052482;28;20021;-68
2023/04/23 10:05:27;;;;;;;5.68;2.50;;;18.90;61.30;;;;;;5052336;28;20471;-69
2023/04/23 10:07:54;;;;;;;7.72;2.42;;;18.90;59.70;;;;;;5052555;28;20048;-68
2023/04/23 10:10:19;;;;;;;7.18;2.58;;;18.90;59.00;;;;;;5052406;28;20090;-68
2023/04/23 10:12:46;;;;;;;5.18;2.10;;;18.80;58.90;;;;;;5052606;28;20029;-69
2023/04/23 10:15:13;;;;;;;3.80;1.98;;;18.80;58.70;;;;;;5052621;28;20036;-67
2023/04/23 10:17:39;;;;;;;6.35;1.90;;;18.90;58.70;;;;;;5052259;28;20104;-69
2023/04/23 10:20:07;;;;;;;7.80;2.40;;;18.90;58.90;;;;;;5052299;28;20028;-68
2023/04/23 10:22:34;;;;;;;7.05;2.15;;;19.10;58.40;;;;;;5052292;28;20120;-69
2023/04/23 10:25:05;;;;;;;5.10;2.08;;;19.10;58.00;;;;;;5052232;28;20055;-68
2023/04/23 10:27:32;;;;;;;5.95;1.98;;;19.10;57.10;;;;;;5052229;28;20025;-68
2023/04/23 10:29:59;;;;;;;7.45;2.55;;;19.10;56.80;;;;;;5052126;28;20032;-69
2023/04/23 10:32:26;;;;;;;5.20;1.88;;;19.00;55.80;;;;;;5052101;28;20071;-69
2023/04/23 10:34:52;;;;;;;7.10;1.70;;;18.90;56.10;;;;;;5050853;28;20029;-67
2023/04/23 10:37:19;;;;;;;4.05;1.70;;;19.10;57.00;;;;;;5051702;28;20021;-68
2023/04/23 10:39:49;;;;;;;5.30;1.70;;;19.00;56.80;;;;;;5052041;28;20029;-69
2023/04/23 10:42:16;;;;;;;5.90;1.67;;;18.90;55.80;;;;;;5051618;28;20017;-69
2023/04/23 10:44:42;;;;;;;3.90;1.40;;;18.90;56.00;;;;;;5051961;28;20078;-69
2023/04/23 10:47:13;;;;;;;5.10;2.03;;;19.00;56.50;;;;;;5051463;28;20036;-67
2023/04/23 10:49:39;;;;;;;4.28;1.50;;;18.90;55.90;;;;;;5051848;28;20044;-68
2023/04/23 10:52:07;;;;;;;5.65;1.90;;;19.00;56.40;;;;;;5051599;28;20024;-68
2023/04/23 10:54:34;;;;;;;6.35;1.80;;;19.10;55.90;;;;;;5051641;28;20029;-68
2023/04/23 10:57:01;;;;;;;4.72;1.75;;;19.20;55.60;;;;;;5051837;28;20032;-69
2023/04/23 10:59:29;;;;;;;3.25;1.85;;;19.30;55.70;;;;;;5051425;28;20388;-68
2023/04/23 11:01:59;;;;;;;5.85;2.05;;;19.40;55.00;;;;;;5051180;28;20052;-69
2023/04/23 11:04:27;;;;;;;4.55;1.95;;;19.30;54.50;;;;;;5050095;28;20108;-69
2023/04/23 11:07:02;;;;;;;4.95;1.88;;;19.20;54.30;;;;;;5051480;28;20025;-69
2023/04/23 11:09:43;;;;;;;6.28;1.52;;;19.20;55.10;;;;;;5051489;28;20021;-70
2023/04/23 11:12:11;;;;;;;3.55;1.50;;;19.20;55.20;;;;;;5051542;28;20036;-70
2023/04/23 11:14:40;;;;;;;6.30;1.70;;;19.20;55.10;;;;;;5051387;28;20100;-68
2023/04/23 11:17:05;;;;;;;6.03;1.70;;;19.20;55.10;;;;;;5051571;28;20049;-69
2023/04/23 11:19:35;;;;;;;5.80;1.90;;;19.30;55.40;;;;;;5051539;28;20052;-69
2023/04/23 11:22:19;;;;;;;4.03;1.50;;;19.40;54.30;;;;;;5051951;28;20014;-70
2023/04/23 11:24:45;;;;;;;3.67;1.25;;;19.40;54.00;;;;;;5051553;28;20051;-69
2023/04/23 11:27:15;;;;;;;5.63;1.70;;;19.50;54.30;;;;;;5051219;28;20021;-69
2023/04/23 11:29:42;;;;;;;3.75;1.80;;;19.50;53.70;;;;;;5051059;28;20502;-69
2023/04/23 11:32:09;;;;;;;4.78;1.85;;;19.60;53.60;;;;;;5051111;28;20075;-68
2023/04/23 11:34:37;;;;;;;4.63;1.70;;;19.60;53.70;;;;;;5051023;28;20021;-69
2023/04/23 11:37:03;;;;;;;2.53;1.27;;;19.70;54.00;;;;;;5050778;28;20025;-69
2023/04/23 11:39:29;;;;;;;3.85;1.50;;;19.80;53.80;;;;;;5050862;28;20096;-69
2023/04/23 11:41:55;;;;;;;9.65;1.80;;;19.80;53.40;;;;;;5050734;28;20506;-68
2023/04/23 11:44:21;;;;;;;4.38;1.73;;;19.70;52.50;;;;;;5050753;28;20040;-69
2023/04/23 11:46:48;;;;;;;5.40;1.50;;;19.60;51.40;;;;;;5050539;28;20487;-68
2023/04/23 11:49:15;;;;;;;5.18;1.77;;;19.60;52.20;;;;;;5051134;28;20033;-69
2023/04/23 11:51:45;;;;;;;6.07;1.60;;;19.60;52.00;;;;;;5050540;28;20036;-69
2023/04/23 11:54:12;;;;;;;3.53;1.20;;;19.60;52.30;;;;;;5050015;28;20021;-68
2023/04/23 11:56:38;;;;;;;4.00;1.52;;;19.60;53.00;;;;;;5050455;28;20498;-68
2023/04/23 11:59:04;;;;;;;3.75;1.63;;;19.70;52.50;;;;;;5050475;28;20143;-69
2023/04/23 12:01:44;;;;;;;4.38;1.58;;;19.80;52.50;;;;;;5050366;28;20021;-68
2023/04/23 12:04:20;;;;;;;4.20;1.50;;;19.90;53.00;;;;;;5050388;28;20568;-69
2023/04/23 12:06:48;;;;;;;4.97;1.58;;;20.00;52.50;;;;;;5050179;28;20439;-68
2023/04/23 12:09:15;;;;;;;3.55;1.50;;;20.00;52.50;;;;;;5050389;28;20032;-69
2023/04/23 12:11:41;;;;;;;5.70;1.70;;;20.00;52.60;;;;;;5050193;28;20025;-69
2023/04/23 12:14:09;;;;;;;3.58;1.40;;;20.10;52.60;;;;;;5050161;28;20051;-69
2023/04/23 12:16:35;;;;;;;3.33;1.23;;;20.10;52.30;;;;;;5050027;28;20035;-68
2023/04/23 12:19:01;;;;;;;3.22;1.30;;;20.10;52.80;;;;;;5050012;28;20055;-68
2023/04/23 12:21:30;;;;;;;4.38;1.60;;;20.10;52.60;;;;;;5050060;28;20032;-69
2023/04/23 12:23:59;;;;;;;3.22;1.40;;;20.00;52.60;;;;;;5050271;28;20075;-68
2023/04/23 12:26:25;;;;;;;5.75;1.70;;;20.00;52.70;;;;;;5050024;28;20489;-69
2023/04/23 12:28:52;;;;;;;5.43;1.77;;;20.00;53.60;;;;;;5050196;28;20017;-69
2023/04/23 12:31:22;;;;;;;4.10;1.70;;;20.00;52.50;;;;;;5050011;28;20021;-69
2023/04/23 12:34:03;;;;;;;4.13;1.50;;;19.90;52.30;;;;;;5049882;28;20024;-68